CheckWX is a tool to help pilots better visualize weather data.  It is not intended as a substitute for an official pre-flight weather briefing.

05:45:31 UTC

KAJR METAR
Habersham County Airport
Cornelia, Georgia, USA
Current

11 mins ago

KAJR 080535Z AUTO 09006KT 10SM CLR 08/04 A3031 RMK AO2 T00810042
Observed
Dec-8 @ 05:35 UTC
Wind
  • 090° at 6 KTS
Visibility
10 SM
Flight Rules
VFR
Cloud Levels
  • Clear skies
Temperature
C / 46°F
Dewpoint
C / 39°F
Humidity
76%
Altimeter
30.31" Hg
Pressure
1026.42 hPa
Previous

31 mins ago

KAJR 080515Z AUTO 09008KT 10SM CLR 09/04 A3031 RMK AO2 T00850042
Observed
Dec-8 @ 05:15 UTC
Wind
  • 090° at 8 KTS
Visibility
10 SM
Flight Rules
VFR
Cloud Levels
  • Clear skies
Temperature
C / 48°F
Dewpoint
C / 39°F
Humidity
71%
Altimeter
30.31" Hg
Pressure
1026.42 hPa
Previous

51 mins ago

KAJR 080455Z AUTO 10009G14KT 10SM CLR 09/04 A3032 RMK AO2 T00880042
Observed
Dec-8 @ 04:55 UTC
Wind
  • 100° at 9 KTS
  • Gusting to 14 KTS
Visibility
10 SM
Flight Rules
VFR
Cloud Levels
  • Clear skies
Temperature
C / 48°F
Dewpoint
C / 39°F
Humidity
71%
Altimeter
30.32" Hg
Pressure
1026.72 hPa